Time;durP1;ratioP1;P1;durP2;ratioP2;P2;SDS_P1;SDS_P2;PMS_P1;PMS_P2;Temp;Humidity;BMP_temperature;BMP_pressure;BME280_temperature;BME280_humidity;BME280_pressure;Samples;Min_cycle;Max_cycle;Signal;HPM_P1;HPM_P2
2022/10/05 00:01:26;;;;;;;547.47;516.87;;;9.70;33.20;;;;;;5013251;28;20424;-71
2022/10/05 00:03:57;;;;;;;669.57;631.47;;;9.70;32.90;;;;;;5013431;28;20552;-71
2022/10/05 00:06:25;;;;;;;561.23;529.47;;;9.60;32.90;;;;;;5013336;28;20977;-71
2022/10/05 00:08:51;;;;;;;603.87;570.57;;;9.50;33.60;;;;;;5013613;28;20425;-70
2022/10/05 00:11:17;;;;;;;273.70;258.83;;;9.60;33.10;;;;;;5013018;28;20986;-70
2022/10/05 00:13:43;;;;;;;649.33;612.47;;;9.50;33.70;;;;;;5013171;28;20307;-70
2022/10/05 00:16:15;;;;;;;585.40;551.87;;;9.50;33.70;;;;;;5013066;28;21051;-72
2022/10/05 00:18:44;;;;;;;431.43;407.03;;;9.50;33.50;;;;;;5013497;28;20221;-71
2022/10/05 00:21:21;;;;;;;379.37;357.63;;;9.50;33.60;;;;;;5012817;28;20418;-71
2022/10/05 00:23:47;;;;;;;674.60;637.87;;;9.60;32.90;;;;;;5013190;28;20783;-70
2022/10/05 00:26:23;;;;;;;630.83;595.27;;;9.60;33.40;;;;;;5011713;28;20515;-71
2022/10/05 00:28:49;;;;;;;630.87;594.93;;;9.50;33.30;;;;;;5013007;28;20809;-71
2022/10/05 00:31:30;;;;;;;581.50;548.73;;;9.50;33.30;;;;;;5011338;28;20854;-70
2022/10/05 00:33:56;;;;;;;668.27;631.73;;;9.40;34.20;;;;;;5012824;28;20460;-70
2022/10/05 00:36:22;;;;;;;661.00;623.20;;;9.40;34.60;;;;;;5012642;28;20453;-70
2022/10/05 00:38:48;;;;;;;334.70;318.00;;;9.40;34.00;;;;;;5012838;28;20414;-70
2022/10/05 00:41:22;;;;;;;606.93;573.70;;;9.30;33.90;;;;;;5012507;28;20472;-70
2022/10/05 00:44:01;;;;;;;656.53;620.77;;;9.30;34.90;;;;;;5012366;28;20421;-71
2022/10/05 00:46:35;;;;;;;541.73;511.70;;;9.30;34.30;;;;;;5010559;28;20453;-72
2022/10/05 00:49:31;;;;;;;344.97;325.53;;;9.20;35.40;;;;;;5011387;28;20514;-71
2022/10/05 00:52:04;;;;;;;708.93;668.70;;;9.20;34.60;;;;;;5010869;28;20470;-70
2022/10/05 00:54:42;;;;;;;620.10;586.57;;;9.20;36.20;;;;;;5010930;28;20849;-71
2022/10/05 00:57:23;;;;;;;231.47;217.80;;;9.20;34.90;;;;;;5012363;28;20444;-71
2022/10/05 01:00:00;;;;;;;638.63;602.90;;;9.10;35.60;;;;;;5011191;28;20437;-70
2022/10/05 01:02:32;;;;;;;251.97;237.80;;;9.10;35.60;;;;;;5012095;28;20975;-71
2022/10/05 01:05:18;;;;;;;291.57;275.10;;;8.90;35.80;;;;;;5012176;28;20499;-70
2022/10/05 01:07:53;;;;;;;641.90;606.60;;;8.80;36.40;;;;;;5011181;28;20774;-70
2022/10/05 01:10:29;;;;;;;587.57;555.40;;;8.70;38.00;;;;;;5011955;28;20773;-71
2022/10/05 01:13:27;;;;;;;260.63;246.27;;;8.70;38.40;;;;;;5010893;28;20860;-71
2022/10/05 01:16:19;;;;;;;444.13;419.13;;;8.60;37.60;;;;;;5007096;28;20455;-70
2022/10/05 01:18:50;;;;;;;610.07;576.37;;;8.60;39.20;;;;;;5012205;28;20432;-70
2022/10/05 01:21:25;;;;;;;275.83;261.07;;;8.70;38.60;;;;;;5010687;28;20836;-71
2022/10/05 01:23:54;;;;;;;673.20;636.40;;;8.70;37.20;;;;;;5012223;28;20854;-69
2022/10/05 01:26:41;;;;;;;651.23;615.77;;;8.70;37.20;;;;;;5012776;28;20590;-70
2022/10/05 01:29:48;;;;;;;697.23;658.57;;;8.80;36.10;;;;;;5012221;28;20878;-70
2022/10/05 01:32:22;;;;;;;519.13;491.83;;;8.70;36.00;;;;;;4989673;28;20479;-69
2022/10/05 01:35:18;;;;;;;310.97;293.20;;;8.70;36.00;;;;;;4990371;28;20907;-69
2022/10/05 01:37:55;;;;;;;304.23;288.37;;;8.50;35.90;;;;;;5014120;23;20498;-70
2022/10/05 01:40:46;;;;;;;532.20;502.30;;;8.60;35.90;;;;;;4994510;28;20402;-70
2022/10/05 01:43:31;;;;;;;257.47;243.33;;;8.50;36.30;;;;;;5009321;28;20426;-69
2022/10/05 01:46:18;;;;;;;599.23;567.77;;;8.40;37.70;;;;;;5009330;28;20455;-69
2022/10/05 01:48:44;;;;;;;354.87;335.23;;;8.40;37.90;;;;;;4993929;28;20512;-69
2022/10/05 01:51:36;;;;;;;605.83;572.03;;;8.50;37.80;;;;;;4993438;28;20494;-70
2022/10/05 01:54:27;;;;;;;626.23;591.87;;;8.50;37.50;;;;;;4994227;28;20244;-69
2022/10/05 01:57:10;;;;;;;453.77;429.03;;;8.60;37.20;;;;;;4994603;28;20461;-69
2022/10/05 02:00:05;;;;;;;534.33;505.83;;;8.60;35.90;;;;;;4992271;28;20421;-69
2022/10/05 02:02:45;;;;;;;677.47;641.50;;;8.60;35.90;;;;;;4993071;28;20435;-70
2022/10/05 02:05:19;;;;;;;561.40;529.60;;;8.60;35.90;;;;;;4993164;28;20410;-69
2022/10/05 02:07:50;;;;;;;729.40;688.73;;;8.60;35.90;;;;;;4993138;28;20520;-69
2022/10/05 02:10:22;;;;;;;621.17;587.43;;;8.60;36.00;;;;;;4992119;28;20443;-69
2022/10/05 02:12:56;;;;;;;518.33;491.57;;;8.60;35.00;;;;;;4992200;28;20471;-69
2022/10/05 02:15:25;;;;;;;632.50;597.80;;;8.50;35.10;;;;;;4994327;28;20430;-69
2022/10/05 02:17:57;;;;;;;575.47;544.60;;;8.50;35.90;;;;;;4995213;28;20437;-69
2022/10/05 02:20:27;;;;;;;563.83;534.20;;;8.50;35.70;;;;;;4995805;28;21009;-69
2022/10/05 02:22:57;;;;;;;713.07;674.70;;;8.40;35.80;;;;;;4998642;28;20475;-69
2022/10/05 02:25:28;;;;;;;270.97;256.47;;;8.40;35.80;;;;;;4996977;28;20450;-69
2022/10/05 02:28:11;;;;;;;237.17;223.90;;;8.20;36.20;;;;;;4997662;28;20436;-69
2022/10/05 02:30:48;;;;;;;355.13;335.23;;;7.90;38.70;;;;;;4996800;28;20428;-70
2022/10/05 02:33:23;;;;;;;369.83;348.37;;;7.90;39.40;;;;;;4996136;28;20911;-69
2022/10/05 02:35:49;;;;;;;702.23;663.77;;;7.80;40.40;;;;;;4995127;28;20475;-69
2022/10/05 02:38:52;;;;;;;408.37;385.43;;;7.80;40.40;;;;;;4996332;28;20825;-69
2022/10/05 02:41:24;;;;;;;706.00;667.40;;;7.90;40.50;;;;;;4978034;28;20197;-70
2022/10/05 02:44:11;;;;;;;249.10;235.00;;;7.90;39.30;;;;;;4996425;28;20423;-69
2022/10/05 02:47:03;;;;;;;279.27;264.47;;;7.90;38.50;;;;;;4996141;28;20448;-69
2022/10/05 02:50:08;;;;;;;602.30;569.63;;;7.70;39.50;;;;;;4995608;28;20935;-68
2022/10/05 02:52:51;;;;;;;611.27;579.30;;;7.50;40.80;;;;;;4992198;28;20467;-68
2022/10/05 02:55:35;;;;;;;702.27;664.07;;;7.60;41.60;;;;;;4995860;28;20454;-68
2022/10/05 02:58:01;;;;;;;748.80;707.47;;;7.70;41.70;;;;;;4995832;28;20506;-69
2022/10/05 03:00:32;;;;;;;676.73;639.23;;;7.80;40.40;;;;;;4996948;28;20917;-68
2022/10/05 03:03:00;;;;;;;617.60;583.30;;;7.80;38.50;;;;;;4995590;28;20673;-69
2022/10/05 03:05:36;;;;;;;472.83;446.93;;;7.80;37.80;;;;;;4996652;28;20420;-69
2022/10/05 03:08:08;;;;;;;655.07;618.90;;;7.80;37.90;;;;;;4997379;28;20837;-69
2022/10/05 03:10:42;;;;;;;575.53;545.60;;;8.00;37.70;;;;;;4996975;28;20507;-69
2022/10/05 03:13:28;;;;;;;344.53;327.33;;;8.00;36.50;;;;;;4995851;28;20460;-69
2022/10/05 03:16:19;;;;;;;240.77;227.60;;;8.10;35.50;;;;;;4995278;28;20504;-69
2022/10/05 03:19:11;;;;;;;659.43;624.47;;;8.00;35.40;;;;;;4995712;28;20425;-68
2022/10/05 03:22:03;;;;;;;428.07;405.53;;;7.90;36.40;;;;;;4994724;28;20412;-69
2022/10/05 03:24:50;;;;;;;337.77;319.40;;;7.90;35.40;;;;;;4984165;28;20801;-69
2022/10/05 03:27:25;;;;;;;268.13;253.57;;;7.80;36.10;;;;;;4975389;28;20488;-69
2022/10/05 03:30:12;;;;;;;242.60;227.83;;;7.80;36.50;;;;;;4975014;28;20435;-69
2022/10/05 03:32:59;;;;;;;341.10;322.40;;;7.80;36.50;;;;;;4976588;28;20612;-68
2022/10/05 03:35:51;;;;;;;235.07;222.20;;;7.40;38.90;;;;;;4978106;28;20815;-69
2022/10/05 03:38:21;;;;;;;343.53;324.07;;;7.30;40.20;;;;;;4982595;28;20960;-69
2022/10/05 03:41:00;;;;;;;526.37;497.17;;;7.50;40.20;;;;;;4996300;28;20753;-69
2022/10/05 03:43:48;;;;;;;558.83;528.10;;;7.50;40.00;;;;;;4978878;28;20436;-69
2022/10/05 03:46:35;;;;;;;660.20;624.80;;;7.40;39.30;;;;;;4994619;28;20432;-69
2022/10/05 03:49:12;;;;;;;347.83;328.83;;;7.40;39.80;;;;;;4994880;28;20775;-69
2022/10/05 03:51:43;;;;;;;216.97;205.50;;;7.50;38.80;;;;;;4994470;28;20419;-69
2022/10/05 03:54:32;;;;;;;484.33;459.00;;;7.50;37.80;;;;;;4994867;28;20472;-69
2022/10/05 03:57:11;;;;;;;720.53;681.27;;;7.60;37.70;;;;;;4995314;28;20495;-69
2022/10/05 03:59:59;;;;;;;535.30;506.17;;;7.70;37.50;;;;;;4995380;28;20408;-69
2022/10/05 04:02:33;;;;;;;606.60;572.70;;;7.70;36.40;;;;;;4990711;28;20453;-69
2022/10/05 04:05:12;;;;;;;611.33;579.67;;;7.70;36.50;;;;;;4977215;28;20421;-69
2022/10/05 04:07:53;;;;;;;592.23;560.00;;;7.80;36.10;;;;;;4992221;28;20452;-69
2022/10/05 04:10:21;;;;;;;401.17;379.07;;;7.80;35.80;;;;;;4997232;28;20459;-69
2022/10/05 04:13:00;;;;;;;505.00;477.77;;;7.80;35.30;;;;;;4994315;28;20836;-69
2022/10/05 04:15:32;;;;;;;672.47;635.97;;;7.80;35.30;;;;;;4996285;28;20508;-69
2022/10/05 04:18:04;;;;;;;527.97;498.97;;;7.80;35.30;;;;;;4996303;28;20931;-69
2022/10/05 04:20:40;;;;;;;365.97;344.40;;;7.80;35.30;;;;;;4995904;28;20413;-69
2022/10/05 04:23:09;;;;;;;452.67;427.80;;;7.80;35.20;;;;;;4994382;28;20523;-69
2022/10/05 04:25:55;;;;;;;606.97;573.63;;;7.80;35.30;;;;;;4993691;28;20432;-69
2022/10/05 04:28:40;;;;;;;504.53;477.13;;;7.80;35.30;;;;;;4993611;28;20833;-69
2022/10/05 04:31:12;;;;;;;580.37;547.10;;;7.80;35.30;;;;;;4993841;28;20499;-69
2022/10/05 04:33:38;;;;;;;562.63;534.20;;;7.80;35.30;;;;;;4974531;28;20469;-69
2022/10/05 04:36:06;;;;;;;285.80;270.33;;;7.90;34.50;;;;;;4973991;28;20448;-69
2022/10/05 04:38:38;;;;;;;564.33;534.53;;;7.80;35.30;;;;;;4972549;28;20221;-70
2022/10/05 04:41:49;;;;;;;642.47;608.87;;;7.80;36.00;;;;;;4976501;28;20459;-69
2022/10/05 04:44:50;;;;;;;703.00;663.43;;;7.80;36.60;;;;;;4991579;28;20415;-70
2022/10/05 04:47:51;;;;;;;347.47;328.33;;;7.70;37.10;;;;;;4991284;28;20950;-70
2022/10/05 04:50:45;;;;;;;640.00;606.67;;;7.70;37.00;;;;;;4991799;28;20428;-70
2022/10/05 04:53:33;;;;;;;595.43;562.97;;;7.80;37.10;;;;;;4972314;28;20468;-72
2022/10/05 04:56:23;;;;;;;619.57;586.60;;;7.90;36.60;;;;;;4979123;28;20497;-71
2022/10/05 04:59:04;;;;;;;513.90;488.07;;;7.80;35.80;;;;;;4993004;28;20437;-71
2022/10/05 05:02:02;;;;;;;619.30;586.03;;;7.80;36.30;;;;;;4991316;28;20487;-70
2022/10/05 05:05:05;;;;;;;357.30;338.73;;;7.80;36.60;;;;;;4972431;28;20506;-71
2022/10/05 05:08:35;;;;;;;335.10;316.67;;;7.80;35.90;;;;;;4974507;28;20437;-70
2022/10/05 05:11:21;;;;;;;558.93;531.53;;;7.70;36.90;;;;;;4936051;29;20452;-72
2022/10/05 05:14:17;;;;;;;661.83;628.00;;;7.70;36.20;;;;;;4932045;29;20477;-73
2022/10/05 05:16:48;;;;;;;260.20;244.17;;;7.60;37.00;;;;;;4987520;28;20872;-73
2022/10/05 05:19:50;;;;;;;368.93;348.73;;;7.50;37.20;;;;;;4988287;28;20464;-73
2022/10/05 05:22:16;;;;;;;224.97;211.93;;;7.50;38.60;;;;;;4992224;28;20436;-73
2022/10/05 05:25:28;;;;;;;221.50;208.43;;;7.40;38.70;;;;;;4991103;28;20459;-73
2022/10/05 05:28:00;;;;;;;272.90;257.63;;;7.20;39.90;;;;;;4992308;28;20205;-73
2022/10/05 05:30:40;;;;;;;218.60;205.70;;;7.20;39.90;;;;;;4992287;28;20432;-73
2022/10/05 05:33:26;;;;;;;190.83;178.43;;;7.10;39.80;;;;;;4992112;28;20440;-73
2022/10/05 05:36:22;;;;;;;269.77;254.10;;;6.90;40.90;;;;;;4992054;28;20548;-68
2022/10/05 05:39:15;;;;;;;501.97;475.63;;;6.80;41.90;;;;;;4990822;28;20519;-69
2022/10/05 05:42:00;;;;;;;281.83;265.90;;;6.80;42.50;;;;;;4992093;28;20404;-72
2022/10/05 05:44:35;;;;;;;486.40;459.67;;;6.80;42.70;;;;;;4990780;28;20436;-71
2022/10/05 05:47:11;;;;;;;408.57;387.73;;;6.90;42.70;;;;;;4992486;28;20446;-69
2022/10/05 05:50:15;;;;;;;303.83;287.20;;;7.00;42.00;;;;;;4991959;28;20453;-69
2022/10/05 05:52:59;;;;;;;452.83;428.77;;;7.00;41.30;;;;;;4958234;28;20459;-69
2022/10/05 05:55:30;;;;;;;635.43;602.03;;;7.00;41.40;;;;;;4994319;28;20404;-69
2022/10/05 05:58:02;;;;;;;623.03;589.63;;;7.10;41.10;;;;;;4995896;28;20451;-69
2022/10/05 06:00:36;;;;;;;606.80;574.40;;;7.20;40.90;;;;;;4994799;28;20426;-69
2022/10/05 06:03:11;;;;;;;373.60;352.30;;;7.20;40.60;;;;;;4995767;28;20525;-69
2022/10/05 06:05:58;;;;;;;447.77;423.53;;;7.20;40.30;;;;;;4996010;28;20427;-69
2022/10/05 06:08:38;;;;;;;508.30;481.50;;;7.30;40.00;;;;;;4995675;28;21002;-69
2022/10/05 06:11:27;;;;;;;401.80;380.60;;;7.30;40.00;;;;;;4995714;28;20963;-69
2022/10/05 06:13:58;;;;;;;560.37;531.60;;;7.40;40.40;;;;;;4994290;28;20999;-68
2022/10/05 06:16:35;;;;;;;569.60;538.80;;;7.50;40.20;;;;;;4994534;28;20852;-69
2022/10/05 06:19:10;;;;;;;315.10;297.97;;;7.50;40.20;;;;;;4995493;28;20460;-68
2022/10/05 06:21:52;;;;;;;530.87;502.27;;;7.50;40.80;;;;;;4995246;28;20435;-69
2022/10/05 06:24:25;;;;;;;707.50;669.90;;;7.60;43.20;;;;;;4994379;28;20428;-69
2022/10/05 06:27:13;;;;;;;665.90;631.20;;;7.90;44.30;;;;;;4994750;28;20436;-68
2022/10/05 06:29:38;;;;;;;656.90;621.73;;;8.30;45.20;;;;;;4994295;28;20802;-69
2022/10/05 06:32:13;;;;;;;647.30;610.07;;;8.60;44.10;;;;;;4995298;28;20425;-69
2022/10/05 06:34:54;;;;;;;594.67;561.37;;;8.80;43.00;;;;;;4995169;28;20175;-67
2022/10/05 06:37:35;;;;;;;552.87;519.37;;;8.90;41.30;;;;;;4995031;28;20473;-68
2022/10/05 06:40:17;;;;;;;582.63;551.90;;;9.10;37.90;;;;;;4994164;28;20417;-67
2022/10/05 06:42:54;;;;;;;614.53;582.33;;;9.10;37.20;;;;;;4995039;28;20432;-68
2022/10/05 06:45:51;;;;;;;341.80;321.77;;;9.20;37.00;;;;;;4995387;28;20419;-67
2022/10/05 06:48:52;;;;;;;631.97;595.80;;;9.30;36.00;;;;;;4992000;28;20517;-70
2022/10/05 06:51:27;;;;;;;592.90;560.13;;;9.30;37.00;;;;;;4993982;28;20422;-67
2022/10/05 06:54:11;;;;;;;647.00;611.47;;;9.40;35.90;;;;;;4994409;28;20527;-67
2022/10/05 06:56:43;;;;;;;395.73;373.33;;;9.50;34.30;;;;;;4994404;28;20438;-67
2022/10/05 07:00:01;;;;;;;381.50;359.40;;;9.60;34.30;;;;;;4995623;28;20502;-67
2022/10/05 07:02:44;;;;;;;469.33;441.47;;;9.70;33.50;;;;;;4978314;28;20439;-67
2022/10/05 07:05:20;;;;;;;493.10;463.50;;;9.60;34.30;;;;;;4996191;28;20408;-67
2022/10/05 07:07:54;;;;;;;460.53;432.97;;;9.70;32.50;;;;;;4993511;28;20454;-67
2022/10/05 07:10:41;;;;;;;626.93;590.77;;;9.90;32.50;;;;;;4996025;28;20404;-67
2022/10/05 07:13:34;;;;;;;583.33;549.67;;;10.00;30.90;;;;;;4995158;28;20466;-66
2022/10/05 07:16:15;;;;;;;622.70;587.03;;;10.00;33.40;;;;;;4995013;28;20474;-67
2022/10/05 07:18:49;;;;;;;616.60;582.17;;;10.00;35.00;;;;;;4993545;28;20415;-66
2022/10/05 07:21:34;;;;;;;620.63;584.83;;;10.10;34.50;;;;;;4994514;28;20900;-66
2022/10/05 07:24:21;;;;;;;451.23;426.03;;;10.20;34.90;;;;;;4993972;28;20431;-66
2022/10/05 07:27:17;;;;;;;636.60;602.00;;;10.30;35.00;;;;;;4993134;28;20869;-67
2022/10/05 07:30:09;;;;;;;555.43;524.33;;;10.50;35.50;;;;;;4993830;28;20426;-66
2022/10/05 07:32:51;;;;;;;595.00;562.57;;;10.70;35.70;;;;;;4992334;28;20454;-67
2022/10/05 07:38:32;;;;;;;560.00;527.87;;;11.00;34.30;;;;;;5031233;23;20497;-68
2022/10/05 07:41:18;;;;;;;484.13;456.80;;;11.20;34.10;;;;;;5010186;28;20432;-68
2022/10/05 07:44:07;;;;;;;511.37;483.97;;;11.40;34.10;;;;;;5009471;28;20438;-68
2022/10/05 07:46:55;;;;;;;619.90;583.17;;;11.80;32.10;;;;;;5009145;28;20458;-68
2022/10/05 07:49:39;;;;;;;505.87;478.33;;;12.00;30.00;;;;;;5010074;28;20431;-68
2022/10/05 07:52:33;;;;;;;540.20;509.60;;;12.20;29.90;;;;;;5009042;28;20439;-67
2022/10/05 07:55:02;;;;;;;661.97;622.87;;;12.40;31.40;;;;;;4997410;28;20435;-68
2022/10/05 07:57:47;;;;;;;466.03;440.77;;;12.60;31.00;;;;;;5008621;28;20447;-68
2022/10/05 08:00:24;;;;;;;534.27;505.03;;;12.70;28.60;;;;;;5008653;28;20795;-71
2022/10/05 08:02:57;;;;;;;411.30;388.87;;;12.90;29.80;;;;;;4999861;28;20456;-68
2022/10/05 08:05:28;;;;;;;620.23;583.70;;;13.10;28.70;;;;;;5009364;28;20766;-68
2022/10/05 08:08:00;;;;;;;479.00;451.23;;;13.30;29.00;;;;;;5009214;28;20435;-68
2022/10/05 08:10:39;;;;;;;546.57;514.80;;;13.40;28.00;;;;;;4989441;28;20427;-67
2022/10/05 08:13:33;;;;;;;534.67;504.00;;;13.60;28.70;;;;;;4998268;28;20566;-67
2022/10/05 08:16:08;;;;;;;563.63;530.77;;;13.80;27.30;;;;;;5009693;28;20484;-68
2022/10/05 08:18:49;;;;;;;496.40;468.23;;;13.90;27.60;;;;;;5009786;28;20414;-67
2022/10/05 08:21:19;;;;;;;657.23;613.47;;;14.10;27.70;;;;;;5008780;28;20434;-66
2022/10/05 08:23:55;;;;;;;557.90;523.43;;;14.20;25.90;;;;;;5008688;28;20561;-68
2022/10/05 08:26:45;;;;;;;660.83;617.80;;;14.30;27.00;;;;;;4995098;28;20590;-68
2022/10/05 08:29:30;;;;;;;524.60;490.53;;;14.40;26.80;;;;;;4989202;28;20424;-68
2022/10/05 08:32:00;;;;;;;534.93;503.43;;;14.60;25.20;;;;;;4988038;28;20463;-69
2022/10/05 08:34:35;;;;;;;642.43;600.83;;;14.70;24.10;;;;;;4989123;28;20428;-69
2022/10/05 08:37:12;;;;;;;510.83;481.97;;;14.70;24.20;;;;;;4989068;28;20516;-69
2022/10/05 08:39:56;;;;;;;617.43;576.07;;;14.80;23.40;;;;;;4988920;28;20426;-69
2022/10/05 08:42:46;;;;;;;533.40;499.60;;;14.90;23.70;;;;;;4988920;28;20479;-68
2022/10/05 08:45:36;;;;;;;528.07;496.97;;;15.00;22.70;;;;;;4989866;28;20507;-69
2022/10/05 08:48:25;;;;;;;513.53;483.00;;;15.10;22.90;;;;;;4989274;28;20436;-68
2022/10/05 08:51:09;;;;;;;529.80;497.47;;;15.20;23.60;;;;;;4989879;28;20427;-69
2022/10/05 08:54:12;;;;;;;539.10;507.10;;;15.30;23.60;;;;;;4989689;28;20462;-69
2022/10/05 08:57:04;;;;;;;560.17;525.33;;;15.40;24.20;;;;;;4989890;28;20436;-69
2022/10/05 08:59:57;;;;;;;547.90;512.80;;;15.50;23.40;;;;;;4988872;28;20424;-69
2022/10/05 09:02:49;;;;;;;819.57;754.80;;;15.60;23.40;;;;;;4988874;28;20420;-69
2022/10/05 09:05:24;;;;;;;572.80;534.47;;;15.60;23.40;;;;;;4988980;28;20428;-69
2022/10/05 09:08:08;;;;;;;517.27;486.90;;;15.60;23.80;;;;;;4988503;28;20439;-69
2022/10/05 09:10:55;;;;;;;488.10;458.40;;;15.70;22.30;;;;;;4989229;28;20805;-70
2022/10/05 09:13:43;;;;;;;523.97;491.57;;;15.80;22.40;;;;;;4988825;28;20466;-69
2022/10/05 09:16:33;;;;;;;499.90;469.73;;;15.90;21.90;;;;;;4988692;28;20925;-69
2022/10/05 09:19:21;;;;;;;484.17;457.17;;;16.00;22.40;;;;;;4989809;28;20420;-70
2022/10/05 09:22:21;;;;;;;547.60;511.10;;;16.10;22.10;;;;;;4988650;28;20781;-70
2022/10/05 09:25:15;;;;;;;586.97;552.60;;;16.10;20.50;;;;;;4990201;28;20416;-70
2022/10/05 09:27:52;;;;;;;524.17;491.87;;;16.20;21.30;;;;;;4990223;28;20431;-70
2022/10/05 09:30:55;;;;;;;627.77;583.47;;;16.30;20.10;;;;;;5003996;28;20427;-69
2022/10/05 09:33:33;;;;;;;535.10;503.53;;;16.30;20.30;;;;;;4989676;28;20983;-70
2022/10/05 09:36:01;;;;;;;529.47;496.50;;;16.50;19.00;;;;;;4989660;28;20481;-69
2022/10/05 09:38:34;;;;;;;508.50;476.97;;;16.60;18.60;;;;;;4988122;28;20428;-70
2022/10/05 09:41:24;;;;;;;660.10;613.50;;;16.70;18.50;;;;;;4987801;28;20503;-70
2022/10/05 09:44:08;;;;;;;473.57;445.97;;;16.80;18.70;;;;;;5003033;28;20479;-69
2022/10/05 09:47:02;;;;;;;578.30;539.97;;;16.90;18.80;;;;;;4988399;28;20435;-69
2022/10/05 09:50:06;;;;;;;581.97;541.43;;;17.00;18.10;;;;;;4988171;28;20820;-69
2022/10/05 09:52:57;;;;;;;475.17;446.13;;;17.10;18.50;;;;;;4977001;28;20514;-70
2022/10/05 09:55:41;;;;;;;509.10;476.30;;;17.30;17.80;;;;;;5003031;28;20464;-68
2022/10/05 09:58:21;;;;;;;549.70;514.80;;;17.40;17.40;;;;;;4988589;28;20446;-69
2022/10/05 10:01:12;;;;;;;571.10;534.77;;;17.50;18.00;;;;;;4988497;28;20420;-69
2022/10/05 10:04:14;;;;;;;502.50;473.67;;;17.60;16.80;;;;;;4987839;28;20587;-68
2022/10/05 10:07:15;;;;;;;518.40;487.47;;;17.80;17.60;;;;;;4988234;28;20445;-69
2022/10/05 10:09:53;;;;;;;554.13;519.73;;;17.90;17.50;;;;;;4988842;28;20427;-68
2022/10/05 10:12:37;;;;;;;563.63;526.60;;;18.00;17.80;;;;;;4988571;28;20544;-68
2022/10/05 10:15:17;;;;;;;396.33;374.20;;;18.20;17.40;;;;;;4988398;28;20535;-70
2022/10/05 10:17:49;;;;;;;520.67;488.67;;;18.30;15.70;;;;;;4991766;28;20454;-72
2022/10/05 10:20:52;;;;;;;459.93;431.97;;;18.50;16.40;;;;;;4992191;28;20424;-69
2022/10/05 10:23:49;;;;;;;519.53;484.13;;;18.60;16.10;;;;;;4991777;28;20510;-71
2022/10/05 10:26:56;;;;;;;458.20;431.77;;;18.70;15.60;;;;;;4991995;28;20423;-72
2022/10/05 10:29:36;;;;;;;478.87;449.73;;;18.90;15.80;;;;;;4991892;28;20502;-70
2022/10/05 10:32:23;;;;;;;521.93;490.20;;;19.00;15.00;;;;;;4991608;28;20984;-71
2022/10/05 10:35:02;;;;;;;580.60;541.73;;;19.20;16.00;;;;;;5006955;28;20442;-71
2022/10/05 10:37:41;;;;;;;566.90;530.47;;;19.30;16.10;;;;;;5006937;28;20486;-71
2022/10/05 10:40:25;;;;;;;757.60;698.53;;;19.40;16.10;;;;;;4991930;28;20937;-71
2022/10/05 10:43:14;;;;;;;617.57;575.60;;;19.50;16.20;;;;;;4994131;28;20991;-71
2022/10/05 10:45:53;;;;;;;640.83;594.30;;;19.70;15.20;;;;;;4995328;28;20925;-70
2022/10/05 10:48:18;;;;;;;537.63;505.30;;;19.80;14.70;;;;;;4995501;28;20428;-71
2022/10/05 10:50:50;;;;;;;549.63;511.73;;;19.90;14.30;;;;;;4995109;28;20427;-71
2022/10/05 10:53:31;;;;;;;821.00;748.10;;;20.10;13.50;;;;;;4995122;28;20219;-71
2022/10/05 10:56:08;;;;;;;496.67;465.63;;;20.20;14.50;;;;;;4995472;28;20423;-70
2022/10/05 10:59:11;;;;;;;526.70;494.30;;;20.20;12.40;;;;;;4995196;28;20935;-70
2022/10/05 11:02:14;;;;;;;572.80;540.87;;;20.40;13.00;;;;;;4994946;28;20771;-70
2022/10/05 11:04:55;;;;;;;648.50;605.13;;;20.50;12.40;;;;;;4995169;28;20419;-71
2022/10/05 11:07:48;;;;;;;669.67;619.27;;;20.60;13.90;;;;;;4994814;28;20439;-70
2022/10/05 11:10:22;;;;;;;686.17;634.47;;;20.70;12.90;;;;;;4995054;28;20420;-71
2022/10/05 11:13:20;;;;;;;599.13;562.67;;;20.80;13.70;;;;;;4994584;28;20462;-71
2022/10/05 11:15:55;;;;;;;580.83;538.67;;;;;;;;;;4994783;28;20434;-70
2022/10/05 11:18:24;;;;;;;663.13;619.83;;;;;;;;;;4994710;28;20434;-71
2022/10/05 11:21:09;;;;;;;614.57;571.03;;;;;;;;;;4994362;28;20447;-71
2022/10/05 11:23:46;;;;;;;455.90;428.83;;;20.90;12.20;;;;;;4994832;28;20407;-71
2022/10/05 11:26:21;;;;;;;665.90;615.60;;;21.30;11.10;;;;;;5009787;28;20415;-70
2022/10/05 11:29:19;;;;;;;640.23;588.83;;;21.40;12.10;;;;;;4994683;28;20434;-71
2022/10/05 11:31:53;;;;;;;560.23;524.33;;;21.60;12.30;;;;;;4994348;28;20443;-71
2022/10/05 11:34:52;;;;;;;658.53;604.47;;;21.70;11.80;;;;;;4994381;28;20890;-70
2022/10/05 11:37:32;;;;;;;603.43;560.47;;;21.80;11.70;;;;;;4994271;28;20944;-71
2022/10/05 11:40:14;;;;;;;733.33;674.33;;;21.90;11.50;;;;;;4994634;28;20831;-71
2022/10/05 11:43:12;;;;;;;598.63;552.60;;;22.10;11.90;;;;;;4994162;28;20501;-71
2022/10/05 11:45:54;;;;;;;661.00;608.87;;;22.10;11.30;;;;;;4994374;28;20882;-70
2022/10/05 11:48:50;;;;;;;636.97;589.10;;;22.30;11.30;;;;;;4994264;28;20442;-71
2022/10/05 11:51:21;;;;;;;718.80;659.23;;;22.40;10.40;;;;;;4994077;28;20419;-71
2022/10/05 11:54:05;;;;;;;669.43;621.87;;;22.50;10.40;;;;;;4993873;28;20956;-70
2022/10/05 11:56:55;;;;;;;600.93;560.43;;;22.60;9.30;;;;;;4994306;28;20443;-69
2022/10/05 11:59:56;;;;;;;731.70;673.17;;;22.70;8.90;;;;;;4994069;28;20535;-69
2022/10/05 12:02:45;;;;;;;640.33;591.90;;;22.70;8.70;;;;;;4993533;28;20985;-69
2022/10/05 12:05:23;;;;;;;597.20;561.13;;;22.60;8.40;;;;;;4993433;28;20787;-69
2022/10/05 12:07:54;;;;;;;649.23;604.53;;;22.60;8.20;;;;;;4993839;28;20463;-69
2022/10/05 12:10:27;;;;;;;697.80;648.40;;;22.50;7.40;;;;;;4993752;28;20454;-69
2022/10/05 12:13:23;;;;;;;675.03;629.27;;;22.50;7.60;;;;;;4993420;28;20467;-69
2022/10/05 12:15:57;;;;;;;544.73;509.93;;;22.40;7.80;;;;;;4993858;28;20407;-69
2022/10/05 12:18:29;;;;;;;657.83;609.10;;;22.40;6.90;;;;;;4993686;28;20458;-69
2022/10/05 12:21:03;;;;;;;652.47;606.90;;;22.40;5.90;;;;;;4993333;28;20463;-69
2022/10/05 12:24:09;;;;;;;641.40;598.73;;;22.30;6.50;;;;;;4993600;28;20414;-69
2022/10/05 12:26:51;;;;;;;625.27;583.37;;;22.30;7.30;;;;;;4982563;28;20447;-69
2022/10/05 12:29:25;;;;;;;605.30;565.57;;;22.40;6.70;;;;;;5008293;28;20485;-69
2022/10/05 12:32:02;;;;;;;643.07;597.03;;;22.30;6.30;;;;;;4998174;28;20805;-69
2022/10/05 12:34:38;;;;;;;600.53;558.00;;;22.30;5.90;;;;;;5012040;28;20431;-69
2022/10/05 12:37:13;;;;;;;602.33;561.97;;;22.30;6.30;;;;;;5012740;28;20462;-68
2022/10/05 12:40:17;;;;;;;581.37;538.33;;;22.30;5.00;;;;;;5009924;28;20407;-68
2022/10/05 12:43:16;;;;;;;644.47;599.77;;;22.30;4.50;;;;;;4949662;29;20451;-69
2022/10/05 12:46:24;;;;;;;593.70;553.53;;;22.40;5.40;;;;;;5000306;28;20441;-68
2022/10/05 12:49:04;;;;;;;667.53;615.60;;;22.40;5.40;;;;;;4983831;28;20431;-69
2022/10/05 12:51:44;;;;;;;549.07;511.00;;;22.50;5.40;;;;;;5009855;28;20438;-69
2022/10/05 12:54:26;;;;;;;639.37;592.87;;;22.50;4.50;;;;;;5012394;28;20462;-69
2022/10/05 12:56:56;;;;;;;617.63;572.00;;;22.60;4.70;;;;;;5012567;28;20434;-68
2022/10/05 12:59:46;;;;;;;638.90;590.63;;;22.60;4.70;;;;;;4999318;28;20412;-68
2022/10/05 13:02:25;;;;;;;569.37;529.20;;;22.60;3.10;;;;;;5012039;28;20433;-68
2022/10/05 13:04:57;;;;;;;495.67;462.53;;;22.70;3.70;;;;;;5011519;28;20407;-69
2022/10/05 13:08:00;;;;;;;545.30;506.10;;;22.70;3.90;;;;;;5012342;28;20459;-69
2022/10/05 13:10:35;;;;;;;664.27;613.40;;;22.70;4.10;;;;;;5012226;28;20415;-69
2022/10/05 13:13:12;;;;;;;596.60;552.73;;;22.70;4.60;;;;;;5012055;28;20462;-69
2022/10/05 13:15:49;;;;;;;672.97;623.13;;;22.70;3.70;;;;;;5012735;28;20830;-69
2022/10/05 13:18:24;;;;;;;708.53;655.97;;;22.70;3.70;;;;;;5011908;28;20505;-69
2022/10/05 13:21:15;;;;;;;606.70;559.53;;;22.70;4.00;;;;;;5012109;28;20409;-69
2022/10/05 13:24:07;;;;;;;569.13;529.57;;;22.70;4.30;;;;;;5012106;28;20465;-69
2022/10/05 13:26:42;;;;;;;594.20;552.50;;;22.60;3.30;;;;;;5012000;28;20546;-68
2022/10/05 13:29:27;;;;;;;652.90;604.30;;;22.60;3.70;;;;;;5011952;28;20438;-69
2022/10/05 13:32:04;;;;;;;650.67;602.57;;;22.70;3.70;;;;;;5011579;28;20829;-69
2022/10/05 13:34:51;;;;;;;655.43;606.57;;;22.70;3.60;;;;;;5009687;28;20426;-69